sensor_id;sensor_type;location;lat;lon;timestamp;pressure;altitude;pressure_sealevel;temperature;humidity
78665;BME280;67981;51.022;-2.870;2023-03-01T00:01:13;102862.94;;;5.75;74.50
78665;BME280;67981;51.022;-2.870;2023-03-01T00:03:39;102866.00;;;5.81;73.32
78665;BME280;67981;51.022;-2.870;2023-03-01T00:06:05;102870.75;;;5.87;72.63
78665;BME280;67981;51.022;-2.870;2023-03-01T00:08:31;102868.06;;;5.85;72.34
78665;BME280;67981;51.022;-2.870;2023-03-01T00:11:06;102878.19;;;5.84;72.45
78665;BME280;67981;51.022;-2.870;2023-03-01T00:13:33;102856.81;;;5.73;72.64
78665;BME280;67981;51.022;-2.870;2023-03-01T00:15:58;102868.56;;;5.81;72.26
78665;BME280;67981;51.022;-2.870;2023-03-01T00:18:24;102868.56;;;5.81;72.24
78665;BME280;67981;51.022;-2.870;2023-03-01T00:20:51;102869.31;;;5.80;72.37
78665;BME280;67981;51.022;-2.870;2023-03-01T00:23:17;102856.38;;;5.78;71.58
78665;BME280;67981;51.022;-2.870;2023-03-01T00:25:43;102873.06;;;5.84;71.42
78665;BME280;67981;51.022;-2.870;2023-03-01T00:28:08;102868.22;;;5.76;71.51
78665;BME280;67981;51.022;-2.870;2023-03-01T00:30:33;102858.72;;;5.75;71.69
78665;BME280;67981;51.022;-2.870;2023-03-01T00:32:59;102862.06;;;5.74;71.47
78665;BME280;67981;51.022;-2.870;2023-03-01T00:35:24;102861.41;;;5.77;71.58
78665;BME280;67981;51.022;-2.870;2023-03-01T00:37:50;102878.69;;;5.79;71.79
78665;BME280;67981;51.022;-2.870;2023-03-01T00:40:26;102864.63;;;5.74;71.70
78665;BME280;67981;51.022;-2.870;2023-03-01T00:42:51;102871.03;;;5.69;72.18
78665;BME280;67981;51.022;-2.870;2023-03-01T00:45:17;102868.59;;;5.71;72.83
78665;BME280;67981;51.022;-2.870;2023-03-01T00:47:43;102862.75;;;5.62;72.85
78665;BME280;67981;51.022;-2.870;2023-03-01T00:50:10;102862.88;;;5.63;73.02
78665;BME280;67981;51.022;-2.870;2023-03-01T00:52:35;102861.84;;;5.61;73.53
78665;BME280;67981;51.022;-2.870;2023-03-01T00:55:00;102863.28;;;5.58;74.07
78665;BME280;67981;51.022;-2.870;2023-03-01T00:57:26;102856.50;;;5.58;74.16
78665;BME280;67981;51.022;-2.870;2023-03-01T00:59:51;102848.03;;;5.59;74.24
78665;BME280;67981;51.022;-2.870;2023-03-01T01:02:20;102839.50;;;5.49;74.72
78665;BME280;67981;51.022;-2.870;2023-03-01T01:04:46;102864.56;;;5.53;76.19
78665;BME280;67981;51.022;-2.870;2023-03-01T01:07:13;102865.84;;;5.48;76.67
78665;BME280;67981;51.022;-2.870;2023-03-01T01:09:39;102860.63;;;5.46;77.17
78665;BME280;67981;51.022;-2.870;2023-03-01T01:12:05;102866.28;;;5.42;76.50
78665;BME280;67981;51.022;-2.870;2023-03-01T01:14:31;102869.34;;;5.38;76.91
78665;BME280;67981;51.022;-2.870;2023-03-01T01:16:56;102861.53;;;5.37;76.58
78665;BME280;67981;51.022;-2.870;2023-03-01T01:19:23;102865.50;;;5.33;76.38
78665;BME280;67981;51.022;-2.870;2023-03-01T01:21:48;102868.38;;;5.26;76.56
78665;BME280;67981;51.022;-2.870;2023-03-01T01:24:14;102870.00;;;5.26;76.22
78665;BME280;67981;51.022;-2.870;2023-03-01T01:26:41;102855.03;;;5.20;76.28
78665;BME280;67981;51.022;-2.870;2023-03-01T01:29:06;102866.19;;;5.21;76.50
78665;BME280;67981;51.022;-2.870;2023-03-01T01:31:33;102856.09;;;5.12;76.06
78665;BME280;67981;51.022;-2.870;2023-03-01T01:34:01;102875.00;;;5.24;75.73
78665;BME280;67981;51.022;-2.870;2023-03-01T01:36:28;102867.22;;;5.13;76.55
78665;BME280;67981;51.022;-2.870;2023-03-01T01:38:53;102869.03;;;5.14;76.28
78665;BME280;67981;51.022;-2.870;2023-03-01T01:41:19;102869.66;;;5.11;76.47
78665;BME280;67981;51.022;-2.870;2023-03-01T01:43:48;102868.63;;;5.19;76.04
78665;BME280;67981;51.022;-2.870;2023-03-01T01:46:28;102867.47;;;5.16;75.85
78665;BME280;67981;51.022;-2.870;2023-03-01T01:49:27;102861.59;;;5.17;76.29
78665;BME280;67981;51.022;-2.870;2023-03-01T01:51:59;102874.28;;;5.15;76.03
78665;BME280;67981;51.022;-2.870;2023-03-01T01:54:31;102852.41;;;5.09;76.14
78665;BME280;67981;51.022;-2.870;2023-03-01T01:57:03;102857.88;;;5.13;76.13
78665;BME280;67981;51.022;-2.870;2023-03-01T01:59:32;102843.69;;;4.97;76.52
78665;BME280;67981;51.022;-2.870;2023-03-01T02:02:00;102848.41;;;5.12;76.20
78665;BME280;67981;51.022;-2.870;2023-03-01T02:04:27;102848.41;;;5.12;76.56
78665;BME280;67981;51.022;-2.870;2023-03-01T02:09:28;102855.34;;;5.03;77.84
78665;BME280;67981;51.022;-2.870;2023-03-01T02:11:55;102854.47;;;4.93;77.73
78665;BME280;67981;51.022;-2.870;2023-03-01T02:14:21;102854.47;;;4.93;77.66
78665;BME280;67981;51.022;-2.870;2023-03-01T02:16:46;102836.03;;;4.87;77.76
78665;BME280;67981;51.022;-2.870;2023-03-01T02:19:26;102840.78;;;4.82;78.40
78665;BME280;67981;51.022;-2.870;2023-03-01T02:22:03;102833.09;;;4.82;78.62
78665;BME280;67981;51.022;-2.870;2023-03-01T02:24:40;102832.47;;;4.85;78.67
78665;BME280;67981;51.022;-2.870;2023-03-01T02:27:10;102829.25;;;4.87;78.46
78665;BME280;67981;51.022;-2.870;2023-03-01T02:29:36;102833.22;;;4.84;78.96
78665;BME280;67981;51.022;-2.870;2023-03-01T02:32:02;102828.75;;;4.81;78.91
78665;BME280;67981;51.022;-2.870;2023-03-01T02:34:30;102831.56;;;4.74;79.34
78665;BME280;67981;51.022;-2.870;2023-03-01T02:37:01;102833.75;;;4.70;79.79
78665;BME280;67981;51.022;-2.870;2023-03-01T02:39:31;102832.22;;;4.72;79.97
78665;BME280;67981;51.022;-2.870;2023-03-01T02:41:59;102823.78;;;4.93;80.82
78665;BME280;67981;51.022;-2.870;2023-03-01T02:44:26;102823.66;;;4.81;79.04
78665;BME280;67981;51.022;-2.870;2023-03-01T02:46:54;102827.25;;;4.73;79.80
78665;BME280;67981;51.022;-2.870;2023-03-01T02:49:31;102817.00;;;4.73;79.75
78665;BME280;67981;51.022;-2.870;2023-03-01T02:55:06;102815.97;;;4.51;80.51
78665;BME280;67981;51.022;-2.870;2023-03-01T02:57:34;102817.00;;;4.53;80.56
78665;BME280;67981;51.022;-2.870;2023-03-01T03:00:08;102824.44;;;4.60;81.18
78665;BME280;67981;51.022;-2.870;2023-03-01T03:02:35;102818.41;;;4.50;81.89
78665;BME280;67981;51.022;-2.870;2023-03-01T03:05:13;102829.53;;;4.50;82.85
78665;BME280;67981;51.022;-2.870;2023-03-01T03:07:41;102828.25;;;4.55;82.74
78665;BME280;67981;51.022;-2.870;2023-03-01T03:10:10;102827.50;;;4.46;83.19
78665;BME280;67981;51.022;-2.870;2023-03-01T03:12:36;102808.81;;;4.47;83.16
78665;BME280;67981;51.022;-2.870;2023-03-01T03:15:03;102826.47;;;4.44;83.61
78665;BME280;67981;51.022;-2.870;2023-03-01T03:17:35;102809.06;;;4.40;83.09
78665;BME280;67981;51.022;-2.870;2023-03-01T03:20:01;102817.25;;;4.36;83.39
78665;BME280;67981;51.022;-2.870;2023-03-01T03:22:28;102809.59;;;4.36;83.78
78665;BME280;67981;51.022;-2.870;2023-03-01T03:24:53;102806.00;;;4.34;83.98
78665;BME280;67981;51.022;-2.870;2023-03-01T03:27:19;102808.69;;;4.35;83.50
78665;BME280;67981;51.022;-2.870;2023-03-01T03:29:44;102813.03;;;4.26;84.28
78665;BME280;67981;51.022;-2.870;2023-03-01T03:32:10;102812.00;;;4.24;83.97
78665;BME280;67981;51.022;-2.870;2023-03-01T03:34:35;102802.28;;;4.20;83.59
78665;BME280;67981;51.022;-2.870;2023-03-01T03:37:00;102805.75;;;4.31;84.00
78665;BME280;67981;51.022;-2.870;2023-03-01T03:39:26;102788.63;;;4.20;84.19
78665;BME280;67981;51.022;-2.870;2023-03-01T03:41:53;102789.00;;;4.24;84.27
78665;BME280;67981;51.022;-2.870;2023-03-01T03:44:19;102797.69;;;4.36;84.43
78665;BME280;67981;51.022;-2.870;2023-03-01T03:46:44;102802.81;;;4.26;83.87
78665;BME280;67981;51.022;-2.870;2023-03-01T03:49:10;102803.31;;;4.32;84.45
78665;BME280;67981;51.022;-2.870;2023-03-01T03:51:35;102794.38;;;4.27;83.84
78665;BME280;67981;51.022;-2.870;2023-03-01T03:54:00;102801.41;;;4.30;84.07
78665;BME280;67981;51.022;-2.870;2023-03-01T03:56:26;102798.59;;;4.37;84.04
78665;BME280;67981;51.022;-2.870;2023-03-01T03:58:52;102795.28;;;4.38;84.00
78665;BME280;67981;51.022;-2.870;2023-03-01T04:01:18;102789.00;;;4.45;83.76
78665;BME280;67981;51.022;-2.870;2023-03-01T04:03:43;102795.78;;;4.34;84.04
78665;BME280;67981;51.022;-2.870;2023-03-01T04:06:14;102791.44;;;4.23;84.04
78665;BME280;67981;51.022;-2.870;2023-03-01T04:08:40;102793.75;;;4.20;84.18
78665;BME280;67981;51.022;-2.870;2023-03-01T04:11:06;102792.97;;;4.21;84.10
78665;BME280;67981;51.022;-2.870;2023-03-01T04:13:51;102787.97;;;4.12;84.17
78665;BME280;67981;51.022;-2.870;2023-03-01T04:16:17;102783.63;;;4.11;84.26
78665;BME280;67981;51.022;-2.870;2023-03-01T04:18:43;102785.41;;;4.12;84.51
78665;BME280;67981;51.022;-2.870;2023-03-01T04:21:09;102782.59;;;4.09;84.68
78665;BME280;67981;51.022;-2.870;2023-03-01T04:23:35;102779.53;;;4.13;84.02
78665;BME280;67981;51.022;-2.870;2023-03-01T04:26:01;102790.53;;;4.22;84.11
78665;BME280;67981;51.022;-2.870;2023-03-01T04:28:32;102784.38;;;4.20;83.86
78665;BME280;67981;51.022;-2.870;2023-03-01T04:31:08;102765.75;;;4.11;83.98
78665;BME280;67981;51.022;-2.870;2023-03-01T04:33:54;102776.31;;;4.06;84.18
78665;BME280;67981;51.022;-2.870;2023-03-01T04:36:22;102778.13;;;4.07;84.33
78665;BME280;67981;51.022;-2.870;2023-03-01T04:38:48;102780.31;;;4.02;84.02
78665;BME280;67981;51.022;-2.870;2023-03-01T04:41:15;102768.53;;;4.04;84.00
78665;BME280;67981;51.022;-2.870;2023-03-01T04:43:41;102755.66;;;3.93;84.12
78665;BME280;67981;51.022;-2.870;2023-03-01T04:46:10;102776.31;;;4.06;84.13
78665;BME280;67981;51.022;-2.870;2023-03-01T04:48:37;102773.38;;;4.01;83.81
78665;BME280;67981;51.022;-2.870;2023-03-01T04:51:03;102770.47;;;4.07;84.06
78665;BME280;67981;51.022;-2.870;2023-03-01T04:53:29;102774.66;;;4.06;83.66
78665;BME280;67981;51.022;-2.870;2023-03-01T04:55:56;102767.66;;;4.04;83.23
78665;BME280;67981;51.022;-2.870;2023-03-01T04:58:25;102774.41;;;4.03;83.49
78665;BME280;67981;51.022;-2.870;2023-03-01T05:00:52;102774.53;;;4.05;83.43
78665;BME280;67981;51.022;-2.870;2023-03-01T05:03:18;102773.50;;;4.03;82.89
78665;BME280;67981;51.022;-2.870;2023-03-01T05:05:45;102779.16;;;3.99;83.41
78665;BME280;67981;51.022;-2.870;2023-03-01T05:08:11;102774.28;;;4.02;83.46
78665;BME280;67981;51.022;-2.870;2023-03-01T05:10:46;102778.00;;;4.05;82.93
78665;BME280;67981;51.022;-2.870;2023-03-01T05:13:13;102780.31;;;4.02;83.02
78665;BME280;67981;51.022;-2.870;2023-03-01T05:15:40;102743.88;;;3.85;82.59
78665;BME280;67981;51.022;-2.870;2023-03-01T05:18:05;102768.28;;;4.01;82.89
78665;BME280;67981;51.022;-2.870;2023-03-01T05:20:37;102763.03;;;4.00;82.52
78665;BME280;67981;51.022;-2.870;2023-03-01T05:23:02;102757.06;;;3.99;83.45
78665;BME280;67981;51.022;-2.870;2023-03-01T05:25:31;102755.88;;;4.06;82.95
78665;BME280;67981;51.022;-2.870;2023-03-01T05:27:59;102752.34;;;4.04;82.42
78665;BME280;67981;51.022;-2.870;2023-03-01T05:30:32;102757.44;;;4.04;82.10
78665;BME280;67981;51.022;-2.870;2023-03-01T05:32:58;102753.97;;;4.03;82.32
78665;BME280;67981;51.022;-2.870;2023-03-01T05:35:24;102750.94;;;4.07;82.57
78665;BME280;67981;51.022;-2.870;2023-03-01T05:37:49;102742.34;;;3.97;82.26
78665;BME280;67981;51.022;-2.870;2023-03-01T05:40:20;102715.28;;;3.89;82.27
78665;BME280;67981;51.022;-2.870;2023-03-01T05:42:47;102747.22;;;4.04;81.96
78665;BME280;67981;51.022;-2.870;2023-03-01T05:45:14;102749.91;;;4.05;81.86
78665;BME280;67981;51.022;-2.870;2023-03-01T05:47:42;102741.72;;;3.99;81.70
78665;BME280;67981;51.022;-2.870;2023-03-01T05:50:29;102749.41;;;3.99;82.06
78665;BME280;67981;51.022;-2.870;2023-03-01T05:53:00;102750.13;;;3.98;82.55
78665;BME280;67981;51.022;-2.870;2023-03-01T05:55:28;102750.78;;;4.06;81.35
78665;BME280;67981;51.022;-2.870;2023-03-01T05:57:54;102743.28;;;4.07;81.31
78665;BME280;67981;51.022;-2.870;2023-03-01T06:00:20;102737.63;;;4.01;81.40
78665;BME280;67981;51.022;-2.870;2023-03-01T06:02:49;102739.31;;;4.01;81.45
78665;BME280;67981;51.022;-2.870;2023-03-01T06:05:15;102743.91;;;4.05;81.46
78665;BME280;67981;51.022;-2.870;2023-03-01T06:07:41;102745.41;;;4.03;81.25
78665;BME280;67981;51.022;-2.870;2023-03-01T06:10:08;102739.19;;;3.99;80.68
78665;BME280;67981;51.022;-2.870;2023-03-01T06:12:35;102749.66;;;4.02;81.30
78665;BME280;67981;51.022;-2.870;2023-03-01T06:15:03;102757.19;;;4.01;81.03
78665;BME280;67981;51.022;-2.870;2023-03-01T06:17:30;102754.63;;;4.01;81.01
78665;BME280;67981;51.022;-2.870;2023-03-01T06:19:56;102751.94;;;3.99;81.33
78665;BME280;67981;51.022;-2.870;2023-03-01T06:22:22;102742.34;;;3.97;80.71
78665;BME280;67981;51.022;-2.870;2023-03-01T06:24:47;102752.94;;;4.01;80.85
78665;BME280;67981;51.022;-2.870;2023-03-01T06:27:13;102752.81;;;4.00;80.92
78665;BME280;67981;51.022;-2.870;2023-03-01T06:29:38;102747.47;;;3.97;81.11
78665;BME280;67981;51.022;-2.870;2023-03-01T06:32:04;102754.75;;;4.02;80.65
78665;BME280;67981;51.022;-2.870;2023-03-01T06:34:30;102729.69;;;3.88;81.66
78665;BME280;67981;51.022;-2.870;2023-03-01T06:36:55;102747.59;;;3.98;81.34
78665;BME280;67981;51.022;-2.870;2023-03-01T06:39:20;102754.88;;;4.04;80.65
78665;BME280;67981;51.022;-2.870;2023-03-01T06:41:46;102764.31;;;4.05;80.46
78665;BME280;67981;51.022;-2.870;2023-03-01T06:44:11;102762.28;;;4.01;80.59
78665;BME280;67981;51.022;-2.870;2023-03-01T06:46:37;102767.00;;;3.96;81.19
78665;BME280;67981;51.022;-2.870;2023-03-01T06:49:03;102764.31;;;3.95;81.17
78665;BME280;67981;51.022;-2.870;2023-03-01T06:51:32;102771.59;;;4.00;80.98
78665;BME280;67981;51.022;-2.870;2023-03-01T06:53:58;102774.16;;;4.00;81.32
78665;BME280;67981;51.022;-2.870;2023-03-01T06:56:23;102741.19;;;3.93;80.33
78665;BME280;67981;51.022;-2.870;2023-03-01T06:58:49;102750.13;;;3.98;79.28
78665;BME280;67981;51.022;-2.870;2023-03-01T07:01:14;102763.19;;;4.21;77.67
78665;BME280;67981;51.022;-2.870;2023-03-01T07:03:40;102764.97;;;4.22;78.36
78665;BME280;67981;51.022;-2.870;2023-03-01T07:06:05;102776.34;;;4.26;78.44
78665;BME280;67981;51.022;-2.870;2023-03-01T07:08:31;102774.69;;;4.16;79.55
78665;BME280;67981;51.022;-2.870;2023-03-01T07:10:59;102774.69;;;4.16;79.18
78665;BME280;67981;51.022;-2.870;2023-03-01T07:13:27;102764.97;;;4.22;78.84
78665;BME280;67981;51.022;-2.870;2023-03-01T07:15:52;102764.72;;;4.19;78.92
78665;BME280;67981;51.022;-2.870;2023-03-01T07:18:18;102768.31;;;4.21;78.80
78665;BME280;67981;51.022;-2.870;2023-03-01T07:20:43;102774.06;;;4.29;77.96
78665;BME280;67981;51.022;-2.870;2023-03-01T07:23:08;102768.94;;;4.29;79.94
78665;BME280;67981;51.022;-2.870;2023-03-01T07:25:34;102769.72;;;4.28;78.52
78665;BME280;67981;51.022;-2.870;2023-03-01T07:27:59;102771.00;;;4.23;78.81
78665;BME280;67981;51.022;-2.870;2023-03-01T07:30:25;102776.34;;;4.26;78.65
78665;BME280;67981;51.022;-2.870;2023-03-01T07:32:53;102769.34;;;4.23;78.60
78665;BME280;67981;51.022;-2.870;2023-03-01T07:35:18;102775.34;;;4.34;78.69
78665;BME280;67981;51.022;-2.870;2023-03-01T07:37:44;102769.31;;;4.33;79.35
78665;BME280;67981;51.022;-2.870;2023-03-01T07:40:10;102770.84;;;4.42;79.15
78665;BME280;67981;51.022;-2.870;2023-03-01T07:42:35;102765.75;;;4.42;78.80
78665;BME280;67981;51.022;-2.870;2023-03-01T07:45:01;102767.00;;;4.36;79.21
78665;BME280;67981;51.022;-2.870;2023-03-01T07:47:26;102782.00;;;4.52;79.41
78665;BME280;67981;51.022;-2.870;2023-03-01T07:49:51;102739.31;;;4.21;80.00
78665;BME280;67981;51.022;-2.870;2023-03-01T07:52:17;102761.53;;;4.42;80.33
78665;BME280;67981;51.022;-2.870;2023-03-01T07:54:43;102778.28;;;4.49;80.62
78665;BME280;67981;51.022;-2.870;2023-03-01T07:57:09;102792.84;;;4.50;80.90
78665;BME280;67981;51.022;-2.870;2023-03-01T07:59:34;102788.63;;;4.50;80.87
78665;BME280;67981;51.022;-2.870;2023-03-01T08:02:00;102789.53;;;4.41;81.13
78665;BME280;67981;51.022;-2.870;2023-03-01T08:04:26;102791.06;;;4.59;81.66
78665;BME280;67981;51.022;-2.870;2023-03-01T08:06:53;102784.41;;;4.51;81.79
78665;BME280;67981;51.022;-2.870;2023-03-01T08:09:18;102793.38;;;4.56;81.73
78665;BME280;67981;51.022;-2.870;2023-03-01T08:11:44;102792.97;;;4.51;81.76
78665;BME280;67981;51.022;-2.870;2023-03-01T08:14:09;102789.66;;;4.52;81.81
78665;BME280;67981;51.022;-2.870;2023-03-01T08:16:36;102794.53;;;4.49;81.85
78665;BME280;67981;51.022;-2.870;2023-03-01T08:19:09;102795.69;;;4.53;81.79
78665;BME280;67981;51.022;-2.870;2023-03-01T08:21:35;102793.88;;;4.52;81.99
78665;BME280;67981;51.022;-2.870;2023-03-01T08:24:06;102797.47;;;4.54;82.40
78665;BME280;67981;51.022;-2.870;2023-03-01T08:26:32;102805.50;;;4.68;82.21
78665;BME280;67981;51.022;-2.870;2023-03-01T08:28:58;102797.47;;;4.54;83.35
78665;BME280;67981;51.022;-2.870;2023-03-01T08:31:27;102798.34;;;4.54;83.37
78665;BME280;67981;51.022;-2.870;2023-03-01T08:33:56;102778.41;;;4.30;85.03
78665;BME280;67981;51.022;-2.870;2023-03-01T08:36:30;102796.94;;;4.48;85.63
78665;BME280;67981;51.022;-2.870;2023-03-01T08:38:56;102799.75;;;4.51;86.33
78665;BME280;67981;51.022;-2.870;2023-03-01T08:41:22;102778.66;;;4.33;86.91
78665;BME280;67981;51.022;-2.870;2023-03-01T08:43:48;102791.72;;;4.46;87.49
78665;BME280;67981;51.022;-2.870;2023-03-01T08:46:13;102795.78;;;4.44;88.30
78665;BME280;67981;51.022;-2.870;2023-03-01T08:48:39;102770.47;;;4.37;88.80
78665;BME280;67981;51.022;-2.870;2023-03-01T08:51:14;102786.72;;;4.48;88.37
78665;BME280;67981;51.022;-2.870;2023-03-01T08:53:41;102783.38;;;4.49;87.84
78665;BME280;67981;51.022;-2.870;2023-03-01T08:56:07;102781.22;;;4.63;87.74
78665;BME280;67981;51.022;-2.870;2023-03-01T08:58:33;102785.66;;;4.66;88.18
78665;BME280;67981;51.022;-2.870;2023-03-01T09:00:58;102776.88;;;4.52;87.40
78665;BME280;67981;51.022;-2.870;2023-03-01T09:03:24;102773.03;;;4.47;88.65
78665;BME280;67981;51.022;-2.870;2023-03-01T09:05:51;102773.41;;;4.52;89.45
78665;BME280;67981;51.022;-2.870;2023-03-01T09:08:18;102769.34;;;4.54;88.47
78665;BME280;67981;51.022;-2.870;2023-03-01T09:10:44;102773.03;;;4.47;88.24
78665;BME280;67981;51.022;-2.870;2023-03-01T09:13:09;102771.38;;;4.48;88.58
78665;BME280;67981;51.022;-2.870;2023-03-01T09:15:38;102756.03;;;4.38;89.00
78665;BME280;67981;51.022;-2.870;2023-03-01T09:18:04;102758.72;;;4.49;89.42
78665;BME280;67981;51.022;-2.870;2023-03-01T09:20:30;102769.69;;;4.48;89.58
78665;BME280;67981;51.022;-2.870;2023-03-01T09:22:56;102771.75;;;4.62;89.65
78665;BME280;67981;51.022;-2.870;2023-03-01T09:25:21;102763.31;;;4.63;88.87
78665;BME280;67981;51.022;-2.870;2023-03-01T09:27:51;102763.06;;;4.70;88.31
78665;BME280;67981;51.022;-2.870;2023-03-01T09:30:16;102755.50;;;4.62;86.79
78665;BME280;67981;51.022;-2.870;2023-03-01T09:32:42;102757.66;;;4.87;87.45
78665;BME280;67981;51.022;-2.870;2023-03-01T09:35:08;102754.28;;;4.98;87.02
78665;BME280;67981;51.022;-2.870;2023-03-01T09:37:35;102755.44;;;5.02;86.18
78665;BME280;67981;51.022;-2.870;2023-03-01T09:40:02;102758.59;;;5.09;85.63
78665;BME280;67981;51.022;-2.870;2023-03-01T09:42:32;102763.78;;;4.99;86.20
78665;BME280;67981;51.022;-2.870;2023-03-01T09:45:05;102755.78;;;5.06;86.75
78665;BME280;67981;51.022;-2.870;2023-03-01T09:47:34;102748.56;;;5.22;84.72
78665;BME280;67981;51.022;-2.870;2023-03-01T09:50:14;102757.38;;;5.36;84.14
78665;BME280;67981;51.022;-2.870;2023-03-01T09:58:17;102742.00;;;5.36;82.71
78665;BME280;67981;51.022;-2.870;2023-03-01T10:00:49;102734.00;;;5.43;82.54
78665;BME280;67981;51.022;-2.870;2023-03-01T10:03:43;102733.84;;;5.51;82.21
78665;BME280;67981;51.022;-2.870;2023-03-01T10:06:20;102739.00;;;5.73;82.23
78665;BME280;67981;51.022;-2.870;2023-03-01T10:08:58;102724.47;;;5.62;81.07
78665;BME280;67981;51.022;-2.870;2023-03-01T10:11:30;102732.56;;;5.78;82.19
78665;BME280;67981;51.022;-2.870;2023-03-01T10:14:03;102738.25;;;5.64;80.81
78665;BME280;67981;51.022;-2.870;2023-03-01T10:19:03;102719.22;;;5.82;81.45
78665;BME280;67981;51.022;-2.870;2023-03-01T10:21:29;102704.13;;;5.75;79.99
78665;BME280;67981;51.022;-2.870;2023-03-01T10:24:13;102711.44;;;5.70;80.31
78665;BME280;67981;51.022;-2.870;2023-03-01T10:29:10;102717.56;;;5.51;79.31
78665;BME280;67981;51.022;-2.870;2023-03-01T10:31:51;102705.84;;;5.43;79.30
78665;BME280;67981;51.022;-2.870;2023-03-01T10:34:20;102720.75;;;5.37;79.06
78665;BME280;67981;51.022;-2.870;2023-03-01T10:36:51;102712.75;;;5.22;79.44
78665;BME280;67981;51.022;-2.870;2023-03-01T10:39:23;102708.84;;;5.37;79.95
78665;BME280;67981;51.022;-2.870;2023-03-01T10:41:56;102707.84;;;5.57;78.98
78665;BME280;67981;51.022;-2.870;2023-03-01T10:44:36;102703.84;;;5.60;78.42
78665;BME280;67981;51.022;-2.870;2023-03-01T10:47:02;102695.44;;;5.51;78.61
78665;BME280;67981;51.022;-2.870;2023-03-01T10:49:27;102680.06;;;5.73;78.75
78665;BME280;67981;51.022;-2.870;2023-03-01T10:51:53;102701.56;;;5.75;78.39
78665;BME280;67981;51.022;-2.870;2023-03-01T10:56:53;102675.47;;;5.69;77.73
78665;BME280;67981;51.022;-2.870;2023-03-01T10:59:32;102682.97;;;5.77;77.71
78665;BME280;67981;51.022;-2.870;2023-03-01T11:02:16;102678.72;;;5.66;76.19
78665;BME280;67981;51.022;-2.870;2023-03-01T11:07:23;102675.41;;;5.57;76.31
78665;BME280;67981;51.022;-2.870;2023-03-01T11:09:48;102660.91;;;5.46;76.56
78665;BME280;67981;51.022;-2.870;2023-03-01T11:12:15;102666.38;;;5.72;76.23
78665;BME280;67981;51.022;-2.870;2023-03-01T11:14:50;102648.69;;;6.09;75.62
78665;BME280;67981;51.022;-2.870;2023-03-01T11:17:27;102657.72;;;6.27;73.35
78665;BME280;67981;51.022;-2.870;2023-03-01T11:20:27;102647.78;;;6.08;71.93
78665;BME280;67981;51.022;-2.870;2023-03-01T11:22:57;102644.56;;;5.99;72.83
78665;BME280;67981;51.022;-2.870;2023-03-01T11:25:30;102651.34;;;5.99;73.36
78665;BME280;67981;51.022;-2.870;2023-03-01T11:27:59;102652.25;;;5.99;72.37
78665;BME280;67981;51.022;-2.870;2023-03-01T11:30:29;102636.28;;;5.92;74.05
78665;BME280;67981;51.022;-2.870;2023-03-01T11:35:35;102647.84;;;5.87;73.12
78665;BME280;67981;51.022;-2.870;2023-03-01T11:38:16;102642.53;;;5.95;73.89
78665;BME280;67981;51.022;-2.870;2023-03-01T11:46:33;102640.88;;;6.19;71.18
78665;BME280;67981;51.022;-2.870;2023-03-01T11:57:20;102614.06;;;6.60;69.52
78665;BME280;67981;51.022;-2.870;2023-03-01T12:03:07;102613.25;;;6.61;70.60
78665;BME280;67981;51.022;-2.870;2023-03-01T12:08:40;102608.38;;;6.41;70.18
78665;BME280;67981;51.022;-2.870;2023-03-01T12:13:59;102598.13;;;6.29;70.93
78665;BME280;67981;51.022;-2.870;2023-03-01T12:19:17;102598.22;;;6.31;70.55
78665;BME280;67981;51.022;-2.870;2023-03-01T12:30:22;102584.50;;;6.42;71.18
78665;BME280;67981;51.022;-2.870;2023-03-01T12:43:39;102558.72;;;6.75;70.73
78665;BME280;67981;51.022;-2.870;2023-03-01T12:51:39;102548.31;;;6.73;70.54
78665;BME280;67981;51.022;-2.870;2023-03-01T12:54:29;102547.78;;;6.66;71.98
78665;BME280;67981;51.022;-2.870;2023-03-01T12:56:57;102522.06;;;6.53;71.74
78665;BME280;67981;51.022;-2.870;2023-03-01T12:59:42;102528.41;;;6.46;71.81
78665;BME280;67981;51.022;-2.870;2023-03-01T13:02:24;102529.09;;;6.44;71.42
78665;BME280;67981;51.022;-2.870;2023-03-01T13:07:50;102533.22;;;6.42;71.94
78665;BME280;67981;51.022;-2.870;2023-03-01T13:10:31;102532.19;;;6.51;71.75
78665;BME280;67981;51.022;-2.870;2023-03-01T13:13:13;102530.75;;;6.43;72.36
78665;BME280;67981;51.022;-2.870;2023-03-01T13:15:40;102481.63;;;6.26;72.23
78665;BME280;67981;51.022;-2.870;2023-03-01T13:26:17;102479.78;;;6.95;71.08
78665;BME280;67981;51.022;-2.870;2023-03-01T13:33:51;102484.31;;;7.24;70.79
78665;BME280;67981;51.022;-2.870;2023-03-01T13:38:56;102465.06;;;7.31;70.14
78665;BME280;67981;51.022;-2.870;2023-03-01T13:46:38;102462.97;;;6.87;71.66
78665;BME280;67981;51.022;-2.870;2023-03-01T13:49:03;102454.78;;;6.93;72.94
78665;BME280;67981;51.022;-2.870;2023-03-01T13:51:29;102449.44;;;6.90;72.37
78665;BME280;67981;51.022;-2.870;2023-03-01T13:53:56;102446.56;;;6.85;71.91
78665;BME280;67981;51.022;-2.870;2023-03-01T13:56:35;102413.03;;;6.71;72.85
78665;BME280;67981;51.022;-2.870;2023-03-01T13:59:05;102427.50;;;6.82;72.38
78665;BME280;67981;51.022;-2.870;2023-03-01T14:01:37;102434.72;;;6.87;72.77
78665;BME280;67981;51.022;-2.870;2023-03-01T14:04:21;102422.16;;;7.03;71.96
78665;BME280;67981;51.022;-2.870;2023-03-01T14:06:48;102422.38;;;7.19;70.62
78665;BME280;67981;51.022;-2.870;2023-03-01T14:09:23;102412.44;;;7.37;71.28
78665;BME280;67981;51.022;-2.870;2023-03-01T14:19:40;102395.44;;;7.65;69.03
78665;BME280;67981;51.022;-2.870;2023-03-01T14:22:25;102404.44;;;7.59;68.25
78665;BME280;67981;51.022;-2.870;2023-03-01T14:24:57;102384.97;;;7.62;69.18
78665;BME280;67981;51.022;-2.870;2023-03-01T14:27:27;102382.41;;;7.62;69.25
78665;BME280;67981;51.022;-2.870;2023-03-01T14:29:58;102385.88;;;7.50;69.25
78665;BME280;67981;51.022;-2.870;2023-03-01T14:32:26;102369.66;;;7.51;68.69
78665;BME280;67981;51.022;-2.870;2023-03-01T14:34:52;102357.91;;;7.54;69.13
78665;BME280;67981;51.022;-2.870;2023-03-01T14:37:33;102338.53;;;7.46;68.70
78665;BME280;67981;51.022;-2.870;2023-03-01T14:39:59;102366.00;;;7.73;68.77
78665;BME280;67981;51.022;-2.870;2023-03-01T14:42:29;102351.38;;;7.59;67.19
78665;BME280;67981;51.022;-2.870;2023-03-01T14:44:57;102362.16;;;7.67;66.64